sensor_id;sensor_type;location;lat;lon;timestamp;pressure;altitude;pressure_sealevel;temperature;humidity
56713;BME280;42589;45.536;9.032;2023-05-13T00:02:24;99733.03;;;42.10;15.87
56713;BME280;42589;45.536;9.032;2023-05-13T00:05:25;99728.03;;;41.48;16.58
56713;BME280;42589;45.536;9.032;2023-05-13T00:08:25;99734.91;;;42.41;15.25
56713;BME280;42589;45.536;9.032;2023-05-13T00:11:27;99732.53;;;42.24;16.24
56713;BME280;42589;45.536;9.032;2023-05-13T00:14:28;99730.47;;;42.40;15.34
56713;BME280;42589;45.536;9.032;2023-05-13T00:17:28;99734.66;;;42.50;15.79
56713;BME280;42589;45.536;9.032;2023-05-13T00:20:29;99732.41;;;42.36;15.68
56713;BME280;42589;45.536;9.032;2023-05-13T00:23:30;99724.06;;;42.59;14.96
56713;BME280;42589;45.536;9.032;2023-05-13T00:26:31;99726.84;;;42.78;15.51
56713;BME280;42589;45.536;9.032;2023-05-13T00:29:32;99716.94;;;42.61;15.42
56713;BME280;42589;45.536;9.032;2023-05-13T00:32:33;99711.28;;;43.00;15.24
56713;BME280;42589;45.536;9.032;2023-05-13T00:35:34;99714.81;;;41.96;15.77
56713;BME280;42589;45.536;9.032;2023-05-13T00:38:35;99718.84;;;42.77;15.65
56713;BME280;42589;45.536;9.032;2023-05-13T00:41:37;99711.50;;;42.49;15.16
56713;BME280;42589;45.536;9.032;2023-05-13T00:44:37;99714.63;;;42.44;15.41
56713;BME280;42589;45.536;9.032;2023-05-13T00:47:39;99724.28;;;42.89;15.17
56713;BME280;42589;45.536;9.032;2023-05-13T00:50:40;99721.63;;;42.18;15.89
56713;BME280;42589;45.536;9.032;2023-05-13T00:53:47;99713.56;;;43.67;15.27
56713;BME280;42589;45.536;9.032;2023-05-13T00:56:48;99709.75;;;41.19;16.52
56713;BME280;42589;45.536;9.032;2023-05-13T00:59:53;99711.66;;;42.37;15.44
56713;BME280;42589;45.536;9.032;2023-05-13T01:06:09;99714.44;;;42.56;16.31
56713;BME280;42589;45.536;9.032;2023-05-13T01:09:22;99716.28;;;43.87;14.54
56713;BME280;42589;45.536;9.032;2023-05-13T01:12:35;99713.50;;;43.37;15.39
56713;BME280;42589;45.536;9.032;2023-05-13T01:15:40;99713.66;;;43.21;15.41
56713;BME280;42589;45.536;9.032;2023-05-13T01:18:51;99716.81;;;43.69;14.83
56713;BME280;42589;45.536;9.032;2023-05-13T01:21:53;99722.00;;;42.56;14.85
56713;BME280;42589;45.536;9.032;2023-05-13T01:24:54;99723.13;;;42.71;15.73
56713;BME280;42589;45.536;9.032;2023-05-13T01:27:54;99716.94;;;42.61;15.68
56713;BME280;42589;45.536;9.032;2023-05-13T01:30:56;99717.19;;;42.95;15.34
56713;BME280;42589;45.536;9.032;2023-05-13T01:34:03;99717.09;;;43.61;15.53
56713;BME280;42589;45.536;9.032;2023-05-13T01:37:04;99716.88;;;42.77;15.91
56713;BME280;42589;45.536;9.032;2023-05-13T01:40:06;99723.81;;;41.74;16.22
56713;BME280;42589;45.536;9.032;2023-05-13T01:43:07;99719.44;;;42.28;15.56
56713;BME280;42589;45.536;9.032;2023-05-13T01:46:12;99721.09;;;43.90;15.18
56713;BME280;42589;45.536;9.032;2023-05-13T01:49:15;99727.09;;;44.18;14.42
56713;BME280;42589;45.536;9.032;2023-05-13T01:52:16;99724.38;;;42.96;15.77
56713;BME280;42589;45.536;9.032;2023-05-13T01:55:17;99728.03;;;43.00;15.41
56713;BME280;42589;45.536;9.032;2023-05-13T01:58:18;99732.72;;;43.16;15.27
56713;BME280;42589;45.536;9.032;2023-05-13T02:01:19;99725.53;;;42.92;15.36
56713;BME280;42589;45.536;9.032;2023-05-13T02:04:20;99725.53;;;42.92;15.33
56713;BME280;42589;45.536;9.032;2023-05-13T02:07:20;99729.34;;;42.83;15.50
56713;BME280;42589;45.536;9.032;2023-05-13T02:10:21;99725.13;;;42.70;15.77
56713;BME280;42589;45.536;9.032;2023-05-13T02:13:22;99727.53;;;42.72;15.62
56713;BME280;42589;45.536;9.032;2023-05-13T02:16:26;99716.63;;;43.32;15.31
56713;BME280;42589;45.536;9.032;2023-05-13T02:19:27;99706.94;;;43.26;15.43
56713;BME280;42589;45.536;9.032;2023-05-13T02:22:28;99710.09;;;42.01;16.41
56713;BME280;42589;45.536;9.032;2023-05-13T02:25:29;99718.28;;;42.48;15.47
56713;BME280;42589;45.536;9.032;2023-05-13T02:28:29;99717.38;;;42.83;15.42
56713;BME280;42589;45.536;9.032;2023-05-13T02:31:30;99725.06;;;42.89;15.97
56713;BME280;42589;45.536;9.032;2023-05-13T02:34:32;99722.22;;;42.66;15.52
56713;BME280;42589;45.536;9.032;2023-05-13T02:37:33;99713.44;;;42.45;15.59
56713;BME280;42589;45.536;9.032;2023-05-13T02:40:33;99717.47;;;42.28;15.75
56713;BME280;42589;45.536;9.032;2023-05-13T02:43:37;99720.94;;;42.41;15.55
56713;BME280;42589;45.536;9.032;2023-05-13T02:46:41;99715.25;;;41.98;15.89
56713;BME280;42589;45.536;9.032;2023-05-13T02:49:43;99714.16;;;41.68;15.79
56713;BME280;42589;45.536;9.032;2023-05-13T02:52:45;99714.13;;;42.61;15.69
56713;BME280;42589;45.536;9.032;2023-05-13T02:55:46;99705.09;;;41.39;16.43
56713;BME280;42589;45.536;9.032;2023-05-13T02:58:47;99714.84;;;40.70;16.87
56713;BME280;42589;45.536;9.032;2023-05-13T03:01:48;99714.44;;;41.31;16.22
56713;BME280;42589;45.536;9.032;2023-05-13T03:04:49;99715.09;;;41.75;15.77
56713;BME280;42589;45.536;9.032;2023-05-13T03:07:50;99717.53;;;41.77;16.03
56713;BME280;42589;45.536;9.032;2023-05-13T03:10:50;99718.84;;;41.99;15.87
56713;BME280;42589;45.536;9.032;2023-05-13T03:13:52;99709.31;;;42.39;15.65
56713;BME280;42589;45.536;9.032;2023-05-13T03:16:53;99720.94;;;42.41;15.40
56713;BME280;42589;45.536;9.032;2023-05-13T03:19:54;99725.81;;;41.89;16.24
56713;BME280;42589;45.536;9.032;2023-05-13T03:22:54;99719.50;;;42.12;15.94
56713;BME280;42589;45.536;9.032;2023-05-13T03:25:56;99722.16;;;42.24;15.40
56713;BME280;42589;45.536;9.032;2023-05-13T03:28:56;99720.16;;;42.25;15.73
56713;BME280;42589;45.536;9.032;2023-05-13T03:31:58;99721.09;;;42.29;15.58
56713;BME280;42589;45.536;9.032;2023-05-13T03:34:58;99725.09;;;41.77;16.48
56713;BME280;42589;45.536;9.032;2023-05-13T03:38:02;99717.91;;;42.30;15.52
56713;BME280;42589;45.536;9.032;2023-05-13T03:41:03;99733.06;;;42.29;15.55
56713;BME280;42589;45.536;9.032;2023-05-13T03:44:04;99738.97;;;42.08;15.87
56713;BME280;42589;45.536;9.032;2023-05-13T03:47:05;99740.59;;;42.09;15.65
56713;BME280;42589;45.536;9.032;2023-05-13T03:50:06;99740.19;;;42.46;15.76
56713;BME280;42589;45.536;9.032;2023-05-13T03:53:07;99756.22;;;42.30;15.83
56713;BME280;42589;45.536;9.032;2023-05-13T03:56:07;99747.03;;;42.29;15.72
56713;BME280;42589;45.536;9.032;2023-05-13T03:59:08;99736.72;;;42.33;15.88
56713;BME280;42589;45.536;9.032;2023-05-13T04:02:09;99738.44;;;42.38;15.07
56713;BME280;42589;45.536;9.032;2023-05-13T04:05:09;99748.41;;;42.58;15.14
56713;BME280;42589;45.536;9.032;2023-05-13T04:08:11;99749.78;;;41.90;15.95
56713;BME280;42589;45.536;9.032;2023-05-13T04:11:12;99756.34;;;42.37;15.93
56713;BME280;42589;45.536;9.032;2023-05-13T04:14:12;99756.19;;;42.10;15.67
56713;BME280;42589;45.536;9.032;2023-05-13T04:17:13;99758.09;;;42.26;15.44
56713;BME280;42589;45.536;9.032;2023-05-13T04:20:14;99758.47;;;42.24;16.06
56713;BME280;42589;45.536;9.032;2023-05-13T04:23:15;99756.72;;;42.55;15.60
56713;BME280;42589;45.536;9.032;2023-05-13T04:26:16;99757.91;;;41.99;15.90
56713;BME280;42589;45.536;9.032;2023-05-13T04:29:17;99758.53;;;41.57;15.90
56713;BME280;42589;45.536;9.032;2023-05-13T04:32:17;99766.75;;;42.01;15.50
56713;BME280;42589;45.536;9.032;2023-05-13T04:35:21;99769.81;;;41.96;16.05
56713;BME280;42589;45.536;9.032;2023-05-13T04:38:21;99777.06;;;42.16;15.70
56713;BME280;42589;45.536;9.032;2023-05-13T04:41:22;99777.28;;;42.27;15.41
56713;BME280;42589;45.536;9.032;2023-05-13T04:44:23;99775.34;;;42.47;15.93
56713;BME280;42589;45.536;9.032;2023-05-13T04:47:24;99777.09;;;42.55;15.89
56713;BME280;42589;45.536;9.032;2023-05-13T04:50:25;99777.38;;;42.70;15.70
56713;BME280;42589;45.536;9.032;2023-05-13T04:53:26;99774.97;;;42.29;15.78
56713;BME280;42589;45.536;9.032;2023-05-13T04:56:27;99768.84;;;42.62;15.41
56713;BME280;42589;45.536;9.032;2023-05-13T04:59:28;99775.25;;;42.08;16.10
56713;BME280;42589;45.536;9.032;2023-05-13T05:02:28;99778.47;;;42.84;15.86
56713;BME280;42589;45.536;9.032;2023-05-13T05:05:29;99783.09;;;42.96;15.18
56713;BME280;42589;45.536;9.032;2023-05-13T05:08:30;99786.22;;;42.72;16.11
56713;BME280;42589;45.536;9.032;2023-05-13T05:11:31;99789.56;;;41.71;16.48
56713;BME280;42589;45.536;9.032;2023-05-13T05:14:35;99794.19;;;43.35;15.52
56713;BME280;42589;45.536;9.032;2023-05-13T05:17:37;99792.44;;;42.46;16.21
56713;BME280;42589;45.536;9.032;2023-05-13T05:20:38;99799.13;;;43.65;15.32
56713;BME280;42589;45.536;9.032;2023-05-13T05:23:41;99799.16;;;42.80;15.64
56713;BME280;42589;45.536;9.032;2023-05-13T05:26:45;99797.00;;;42.34;15.92
56713;BME280;42589;45.536;9.032;2023-05-13T05:29:46;99804.56;;;43.11;15.62
56713;BME280;42589;45.536;9.032;2023-05-13T05:32:48;99809.44;;;42.56;15.90
56713;BME280;42589;45.536;9.032;2023-05-13T05:35:49;99817.81;;;42.56;15.79
56713;BME280;42589;45.536;9.032;2023-05-13T05:38:50;99809.19;;;43.96;15.23
56713;BME280;42589;45.536;9.032;2023-05-13T05:41:52;99813.09;;;42.99;15.41
56713;BME280;42589;45.536;9.032;2023-05-13T05:44:53;99813.75;;;41.99;15.61
56713;BME280;42589;45.536;9.032;2023-05-13T05:47:53;99823.38;;;43.57;14.62
56713;BME280;42589;45.536;9.032;2023-05-13T05:50:56;99822.22;;;43.39;15.10
56713;BME280;42589;45.536;9.032;2023-05-13T05:53:57;99826.94;;;43.34;14.96
56713;BME280;42589;45.536;9.032;2023-05-13T05:56:58;99815.84;;;42.21;15.86
56713;BME280;42589;45.536;9.032;2023-05-13T06:00:00;99829.19;;;42.28;14.85
56713;BME280;42589;45.536;9.032;2023-05-13T06:03:01;99817.00;;;40.53;17.06
56713;BME280;42589;45.536;9.032;2023-05-13T06:06:01;99824.06;;;40.23;17.06
56713;BME280;42589;45.536;9.032;2023-05-13T06:09:02;99831.16;;;42.82;15.79
56713;BME280;42589;45.536;9.032;2023-05-13T06:12:04;99840.69;;;43.01;15.07
56713;BME280;42589;45.536;9.032;2023-05-13T06:15:06;99835.28;;;43.31;15.31
56713;BME280;42589;45.536;9.032;2023-05-13T06:18:09;99845.19;;;42.86;15.61
56713;BME280;42589;45.536;9.032;2023-05-13T06:21:10;99848.78;;;43.94;14.72
56713;BME280;42589;45.536;9.032;2023-05-13T06:24:11;99850.34;;;43.46;14.81
56713;BME280;42589;45.536;9.032;2023-05-13T06:27:12;99847.84;;;42.08;15.50
56713;BME280;42589;45.536;9.032;2023-05-13T06:30:16;99846.34;;;41.95;16.12
56713;BME280;42589;45.536;9.032;2023-05-13T06:33:18;99845.00;;;41.13;17.26
56713;BME280;42589;45.536;9.032;2023-05-13T06:36:19;99847.53;;;41.78;16.70
56713;BME280;42589;45.536;9.032;2023-05-13T06:39:19;99841.41;;;39.46;18.89
56713;BME280;42589;45.536;9.032;2023-05-13T06:42:20;99846.06;;;40.80;17.17
56713;BME280;42589;45.536;9.032;2023-05-13T06:45:22;99856.56;;;41.87;16.72
56713;BME280;42589;45.536;9.032;2023-05-13T06:48:25;99861.88;;;43.02;15.18
56713;BME280;42589;45.536;9.032;2023-05-13T06:51:26;99847.91;;;41.33;16.37
56713;BME280;42589;45.536;9.032;2023-05-13T06:54:27;99844.81;;;41.66;16.41
56713;BME280;42589;45.536;9.032;2023-05-13T06:57:28;99852.41;;;43.72;15.08
56713;BME280;42589;45.536;9.032;2023-05-13T07:00:28;99854.03;;;44.53;14.31
56713;BME280;42589;45.536;9.032;2023-05-13T07:03:29;99861.38;;;43.39;14.99
56713;BME280;42589;45.536;9.032;2023-05-13T07:06:31;99854.03;;;40.94;16.86
56713;BME280;42589;45.536;9.032;2023-05-13T07:09:32;99853.53;;;41.64;16.66
56713;BME280;42589;45.536;9.032;2023-05-13T07:12:33;99853.16;;;42.13;15.72
56713;BME280;42589;45.536;9.032;2023-05-13T07:15:35;99856.53;;;41.12;16.90
56713;BME280;42589;45.536;9.032;2023-05-13T07:18:38;99866.28;;;43.45;15.63
56713;BME280;42589;45.536;9.032;2023-05-13T07:21:39;99872.66;;;43.88;15.26
56713;BME280;42589;45.536;9.032;2023-05-13T07:24:40;99860.69;;;41.62;17.06
56713;BME280;42589;45.536;9.032;2023-05-13T07:27:41;99874.69;;;42.83;16.25
56713;BME280;42589;45.536;9.032;2023-05-13T07:30:42;99873.75;;;43.15;15.64
56713;BME280;42589;45.536;9.032;2023-05-13T07:33:42;99872.16;;;43.83;14.86
56713;BME280;42589;45.536;9.032;2023-05-13T07:36:43;99860.47;;;41.11;16.54
56713;BME280;42589;45.536;9.032;2023-05-13T07:39:44;99867.22;;;41.85;16.78
56713;BME280;42589;45.536;9.032;2023-05-13T07:42:45;99868.56;;;42.58;15.63
56713;BME280;42589;45.536;9.032;2023-05-13T07:45:46;99865.41;;;41.61;16.21
56713;BME280;42589;45.536;9.032;2023-05-13T07:48:47;99867.28;;;40.85;17.47
56713;BME280;42589;45.536;9.032;2023-05-13T07:51:47;99861.72;;;40.85;16.71
56713;BME280;42589;45.536;9.032;2023-05-13T07:54:48;99865.91;;;41.35;16.16
56713;BME280;42589;45.536;9.032;2023-05-13T07:57:49;99876.97;;;43.17;15.09
56713;BME280;42589;45.536;9.032;2023-05-13T08:00:50;99868.59;;;44.96;14.23
56713;BME280;42589;45.536;9.032;2023-05-13T08:03:50;99868.47;;;43.32;15.08
56713;BME280;42589;45.536;9.032;2023-05-13T08:06:51;99870.25;;;44.40;14.47
56713;BME280;42589;45.536;9.032;2023-05-13T08:09:55;99873.50;;;44.42;14.57
56713;BME280;42589;45.536;9.032;2023-05-13T08:12:57;99866.28;;;43.22;14.76
56713;BME280;42589;45.536;9.032;2023-05-13T08:16:00;99880.59;;;42.27;15.97
56713;BME280;42589;45.536;9.032;2023-05-13T08:19:03;99873.38;;;42.77;15.56
56713;BME280;42589;45.536;9.032;2023-05-13T08:22:04;99870.00;;;44.22;14.30
56713;BME280;42589;45.536;9.032;2023-05-13T08:25:05;99859.03;;;41.17;16.99
56713;BME280;42589;45.536;9.032;2023-05-13T08:28:05;99863.03;;;42.62;15.50
56713;BME280;42589;45.536;9.032;2023-05-13T08:31:06;99862.56;;;42.95;15.46
56713;BME280;42589;45.536;9.032;2023-05-13T08:34:07;99873.63;;;44.53;14.40
56713;BME280;42589;45.536;9.032;2023-05-13T08:37:08;99859.06;;;44.13;14.59
56713;BME280;42589;45.536;9.032;2023-05-13T08:40:12;99859.88;;;44.14;13.85
56713;BME280;42589;45.536;9.032;2023-05-13T08:43:15;99859.72;;;43.80;14.50
56713;BME280;42589;45.536;9.032;2023-05-13T08:46:15;99862.66;;;43.87;15.21
56713;BME280;42589;45.536;9.032;2023-05-13T08:49:18;99848.13;;;42.19;15.98
56713;BME280;42589;45.536;9.032;2023-05-13T08:52:22;99852.97;;;42.96;14.74
56713;BME280;42589;45.536;9.032;2023-05-13T08:55:22;99864.19;;;43.39;14.81
56713;BME280;42589;45.536;9.032;2023-05-13T08:58:24;99861.84;;;45.82;12.99
56713;BME280;42589;45.536;9.032;2023-05-13T09:01:25;99854.75;;;42.85;15.11
56713;BME280;42589;45.536;9.032;2023-05-13T09:04:26;99863.38;;;42.96;15.54
56713;BME280;42589;45.536;9.032;2023-05-13T09:07:29;99848.50;;;45.24;13.45
56713;BME280;42589;45.536;9.032;2023-05-13T09:10:30;99852.56;;;44.32;13.86
56713;BME280;42589;45.536;9.032;2023-05-13T09:13:33;99848.16;;;43.82;14.71
56713;BME280;42589;45.536;9.032;2023-05-13T09:16:35;99848.75;;;43.48;14.64
56713;BME280;42589;45.536;9.032;2023-05-13T09:19:35;99845.41;;;43.59;14.26
56713;BME280;42589;45.536;9.032;2023-05-13T09:25:50;99832.66;;;45.90;13.21
56713;BME280;42589;45.536;9.032;2023-05-13T09:29:14;99839.69;;;48.09;11.86
56713;BME280;42589;45.536;9.032;2023-05-13T09:32:15;99826.66;;;43.40;13.90
56713;BME280;42589;45.536;9.032;2023-05-13T09:35:16;99825.38;;;45.00;12.62
56713;BME280;42589;45.536;9.032;2023-05-13T09:38:23;99808.59;;;45.93;12.87
56713;BME280;42589;45.536;9.032;2023-05-13T09:41:31;99815.13;;;44.78;13.70
56713;BME280;42589;45.536;9.032;2023-05-13T09:44:37;99818.38;;;46.17;12.37
56713;BME280;42589;45.536;9.032;2023-05-13T09:47:39;99821.53;;;46.88;11.77
56713;BME280;42589;45.536;9.032;2023-05-13T09:50:47;99822.97;;;45.84;12.85
56713;BME280;42589;45.536;9.032;2023-05-13T09:53:48;99818.66;;;45.08;13.29
56713;BME280;42589;45.536;9.032;2023-05-13T09:56:57;99826.69;;;46.72;12.28
56713;BME280;42589;45.536;9.032;2023-05-13T10:00:02;99815.41;;;45.47;12.30
56713;BME280;42589;45.536;9.032;2023-05-13T10:03:07;99812.41;;;45.70;12.73
56713;BME280;42589;45.536;9.032;2023-05-13T10:06:24;99815.91;;;46.92;12.26
56713;BME280;42589;45.536;9.032;2023-05-13T10:09:25;99817.97;;;45.19;12.81
56713;BME280;42589;45.536;9.032;2023-05-13T10:12:30;99815.50;;;46.93;12.20
56713;BME280;42589;45.536;9.032;2023-05-13T10:15:33;99825.94;;;46.86;12.41
56713;BME280;42589;45.536;9.032;2023-05-13T10:18:34;99828.47;;;47.52;11.56
56713;BME280;42589;45.536;9.032;2023-05-13T10:21:35;99809.59;;;45.67;12.74
56713;BME280;42589;45.536;9.032;2023-05-13T10:24:37;99817.72;;;48.74;10.72
56713;BME280;42589;45.536;9.032;2023-05-13T10:27:39;99807.50;;;44.44;13.22
56713;BME280;42589;45.536;9.032;2023-05-13T10:30:45;99814.75;;;47.14;11.26
56713;BME280;42589;45.536;9.032;2023-05-13T10:33:51;99817.19;;;47.77;11.47
56713;BME280;42589;45.536;9.032;2023-05-13T10:37:16;99822.19;;;48.68;11.03
56713;BME280;42589;45.536;9.032;2023-05-13T10:43:45;99815.97;;;47.99;11.74
56713;BME280;42589;45.536;9.032;2023-05-13T10:47:12;99802.56;;;48.39;11.26
56713;BME280;42589;45.536;9.032;2023-05-13T10:50:24;99801.75;;;50.09;10.27
56713;BME280;42589;45.536;9.032;2023-05-13T10:53:27;99797.97;;;49.40;9.69
56713;BME280;42589;45.536;9.032;2023-05-13T10:56:28;99796.53;;;49.14;10.01
56713;BME280;42589;45.536;9.032;2023-05-13T10:59:29;99791.34;;;48.21;10.75
56713;BME280;42589;45.536;9.032;2023-05-13T11:02:30;99785.16;;;49.29;9.98
56713;BME280;42589;45.536;9.032;2023-05-13T11:05:31;99778.75;;;49.24;9.90
56713;BME280;42589;45.536;9.032;2023-05-13T11:08:36;99774.66;;;50.77;9.46
56713;BME280;42589;45.536;9.032;2023-05-13T11:11:37;99782.38;;;49.70;10.42
56713;BME280;42589;45.536;9.032;2023-05-13T11:14:41;99774.47;;;49.50;10.11
56713;BME280;42589;45.536;9.032;2023-05-13T11:17:44;99771.66;;;48.98;10.95
56713;BME280;42589;45.536;9.032;2023-05-13T11:20:50;99762.28;;;49.12;10.12
56713;BME280;42589;45.536;9.032;2023-05-13T11:23:56;99765.03;;;49.26;10.92
56713;BME280;42589;45.536;9.032;2023-05-13T11:27:11;99760.38;;;49.92;9.50
56713;BME280;42589;45.536;9.032;2023-05-13T11:30:24;99756.22;;;49.62;9.55
56713;BME280;42589;45.536;9.032;2023-05-13T11:34:06;99751.00;;;48.49;10.37
56713;BME280;42589;45.536;9.032;2023-05-13T11:37:07;99742.16;;;49.10;9.65
56713;BME280;42589;45.536;9.032;2023-05-13T11:40:10;99744.81;;;48.76;10.60
56713;BME280;42589;45.536;9.032;2023-05-13T11:43:18;99740.59;;;50.26;10.01
56713;BME280;42589;45.536;9.032;2023-05-13T11:46:21;99744.44;;;50.09;10.85
56713;BME280;42589;45.536;9.032;2023-05-13T11:49:39;99746.03;;;47.62;11.04
56713;BME280;42589;45.536;9.032;2023-05-13T11:52:40;99731.19;;;49.16;10.37
56713;BME280;42589;45.536;9.032;2023-05-13T11:55:41;99725.66;;;49.50;10.02
56713;BME280;42589;45.536;9.032;2023-05-13T11:58:42;99739.94;;;50.11;10.06
56713;BME280;42589;45.536;9.032;2023-05-13T12:01:42;99731.84;;;49.38;9.54
56713;BME280;42589;45.536;9.032;2023-05-13T12:04:44;99726.22;;;48.86;10.12
56713;BME280;42589;45.536;9.032;2023-05-13T12:07:45;99723.00;;;49.73;9.65
56713;BME280;42589;45.536;9.032;2023-05-13T12:10:45;99719.47;;;47.77;11.21
56713;BME280;42589;45.536;9.032;2023-05-13T12:13:47;99715.22;;;49.47;10.30
56713;BME280;42589;45.536;9.032;2023-05-13T12:16:48;99713.69;;;49.77;9.63
56713;BME280;42589;45.536;9.032;2023-05-13T12:20:12;99722.09;;;52.50;9.11
56713;BME280;42589;45.536;9.032;2023-05-13T12:23:13;99731.56;;;51.20;9.11
56713;BME280;42589;45.536;9.032;2023-05-13T12:26:14;99722.81;;;50.83;9.74
56713;BME280;42589;45.536;9.032;2023-05-13T12:29:15;99712.38;;;49.02;10.02
56713;BME280;42589;45.536;9.032;2023-05-13T12:32:16;99711.28;;;50.44;9.15
56713;BME280;42589;45.536;9.032;2023-05-13T12:35:19;99703.59;;;50.44;9.33
56713;BME280;42589;45.536;9.032;2023-05-13T12:38:23;99707.22;;;51.22;8.81
56713;BME280;42589;45.536;9.032;2023-05-13T12:41:26;99700.50;;;50.89;9.52
56713;BME280;42589;45.536;9.032;2023-05-13T12:44:27;99701.56;;;50.45;9.42
56713;BME280;42589;45.536;9.032;2023-05-13T12:47:46;99705.69;;;51.65;8.85
56713;BME280;42589;45.536;9.032;2023-05-13T12:50:48;99694.78;;;49.73;9.82
56713;BME280;42589;45.536;9.032;2023-05-13T12:53:49;99698.97;;;49.62;9.62
56713;BME280;42589;45.536;9.032;2023-05-13T12:56:51;99695.41;;;48.46;10.05
56713;BME280;42589;45.536;9.032;2023-05-13T12:59:52;99698.47;;;47.96;10.13
56713;BME280;42589;45.536;9.032;2023-05-13T13:02:52;99694.16;;;46.98;10.77
56713;BME280;42589;45.536;9.032;2023-05-13T13:05:53;99694.13;;;48.62;9.92
56713;BME280;42589;45.536;9.032;2023-05-13T13:08:54;99685.78;;;49.03;9.60
56713;BME280;42589;45.536;9.032;2023-05-13T13:11:54;99677.97;;;45.03;12.38
56713;BME280;42589;45.536;9.032;2023-05-13T13:14:55;99683.25;;;46.58;12.18
56713;BME280;42589;45.536;9.032;2023-05-13T13:17:59;99678.00;;;46.56;12.54
56713;BME280;42589;45.536;9.032;2023-05-13T13:21:00;99680.72;;;48.06;11.44
56713;BME280;42589;45.536;9.032;2023-05-13T13:24:01;99675.31;;;48.41;10.98
56713;BME280;42589;45.536;9.032;2023-05-13T13:27:02;99662.38;;;45.05;12.98
56713;BME280;42589;45.536;9.032;2023-05-13T13:30:03;99658.75;;;43.93;13.71
56713;BME280;42589;45.536;9.032;2023-05-13T13:33:04;99663.09;;;45.47;12.62
56713;BME280;42589;45.536;9.032;2023-05-13T13:36:05;99658.69;;;44.98;13.00
56713;BME280;42589;45.536;9.032;2023-05-13T13:39:07;99648.56;;;46.00;12.40
56713;BME280;42589;45.536;9.032;2023-05-13T13:42:08;99647.13;;;44.58;13.41
56713;BME280;42589;45.536;9.032;2023-05-13T13:45:12;99650.34;;;47.40;11.45
56713;BME280;42589;45.536;9.032;2023-05-13T13:48:13;99650.84;;;48.90;10.79
56713;BME280;42589;45.536;9.032;2023-05-13T13:51:14;99647.66;;;49.29;10.18
56713;BME280;42589;45.536;9.032;2023-05-13T13:54:15;99650.56;;;50.52;9.54
56713;BME280;42589;45.536;9.032;2023-05-13T13:57:16;99653.56;;;51.15;9.44
56713;BME280;42589;45.536;9.032;2023-05-13T14:00:17;99637.06;;;49.75;9.99
56713;BME280;42589;45.536;9.032;2023-05-13T14:03:18;99640.44;;;50.54;9.59
56713;BME280;42589;45.536;9.032;2023-05-13T14:06:20;99634.28;;;47.19;11.59
56713;BME280;42589;45.536;9.032;2023-05-13T14:09:20;99633.66;;;48.03;10.32
56713;BME280;42589;45.536;9.032;2023-05-13T14:12:21;99627.16;;;48.10;10.45
56713;BME280;42589;45.536;9.032;2023-05-13T14:15:23;99622.25;;;47.05;11.22
56713;BME280;42589;45.536;9.032;2023-05-13T14:18:27;99623.06;;;48.29;9.77
56713;BME280;42589;45.536;9.032;2023-05-13T14:21:28;99622.56;;;47.57;10.71
56713;BME280;42589;45.536;9.032;2023-05-13T14:24:29;99619.41;;;47.15;11.54
56713;BME280;42589;45.536;9.032;2023-05-13T14:27:31;99627.97;;;49.60;10.24
56713;BME280;42589;45.536;9.032;2023-05-13T14:30:35;99630.00;;;50.75;9.11
56713;BME280;42589;45.536;9.032;2023-05-13T14:33:36;99623.41;;;49.69;9.80
56713;BME280;42589;45.536;9.032;2023-05-13T14:36:37;99613.06;;;50.98;8.86
56713;BME280;42589;45.536;9.032;2023-05-13T14:39:38;99631.72;;;51.39;8.82
56713;BME280;42589;45.536;9.032;2023-05-13T14:42:39;99624.66;;;50.80;8.57
56713;BME280;42589;45.536;9.032;2023-05-13T14:45:40;99609.88;;;49.54;9.00
56713;BME280;42589;45.536;9.032;2023-05-13T14:48:40;99614.22;;;51.01;8.13
56713;BME280;42589;45.536;9.032;2023-05-13T14:51:41;99599.53;;;49.02;8.95
56713;BME280;42589;45.536;9.032;2023-05-13T14:54:42;99603.50;;;48.63;9.78
56713;BME280;42589;45.536;9.032;2023-05-13T14:57:43;99602.97;;;49.24;9.27
56713;BME280;42589;45.536;9.032;2023-05-13T15:00:44;99609.34;;;51.45;8.05
56713;BME280;42589;45.536;9.032;2023-05-13T15:03:45;99606.94;;;52.03;7.86
56713;BME280;42589;45.536;9.032;2023-05-13T15:06:46;99606.16;;;50.49;9.07
56713;BME280;42589;45.536;9.032;2023-05-13T15:09:47;99608.34;;;52.64;7.65
56713;BME280;42589;45.536;9.032;2023-05-13T15:12:48;99603.16;;;53.79;7.75
56713;BME280;42589;45.536;9.032;2023-05-13T15:15:49;99605.69;;;53.61;7.22
56713;BME280;42589;45.536;9.032;2023-05-13T15:18:50;99595.56;;;49.71;8.85
56713;BME280;42589;45.536;9.032;2023-05-13T15:21:51;99607.78;;;54.02;7.30
56713;BME280;42589;45.536;9.032;2023-05-13T15:24:52;99599.28;;;53.86;7.21
56713;BME280;42589;45.536;9.032;2023-05-13T15:27:53;99604.81;;;54.44;6.95
56713;BME280;42589;45.536;9.032;2023-05-13T15:30:54;99601.59;;;54.16;6.65
56713;BME280;42589;45.536;9.032;2023-05-13T15:33:56;99597.56;;;56.10;6.55
56713;BME280;42589;45.536;9.032;2023-05-13T15:36:57;99593.34;;;55.17;6.64
56713;BME280;42589;45.536;9.032;2023-05-13T15:39:57;99604.25;;;56.16;6.28
56713;BME280;42589;45.536;9.032;2023-05-13T15:42:58;99602.41;;;56.31;5.87
56713;BME280;42589;45.536;9.032;2023-05-13T15:45:59;99598.31;;;56.01;6.38
56713;BME280;42589;45.536;9.032;2023-05-13T15:49:00;99600.38;;;56.41;6.48
56713;BME280;42589;45.536;9.032;2023-05-13T15:52:01;99596.13;;;58.17;5.92
56713;BME280;42589;45.536;9.032;2023-05-13T15:55:01;99596.13;;;58.17;5.71
56713;BME280;42589;45.536;9.032;2023-05-13T15:58:02;99595.06;;;57.35;5.79
56713;BME280;42589;45.536;9.032;2023-05-13T16:01:03;99582.22;;;55.10;6.24
56713;BME280;42589;45.536;9.032;2023-05-13T16:04:05;99595.22;;;56.67;6.06
56713;BME280;42589;45.536;9.032;2023-05-13T16:07:05;99587.00;;;57.42;5.46
56713;BME280;42589;45.536;9.032;2023-05-13T16:10:10;99588.44;;;57.01;5.86
56713;BME280;42589;45.536;9.032;2023-05-13T16:13:11;99594.88;;;54.23;6.77
56713;BME280;42589;45.536;9.032;2023-05-13T16:16:12;99576.22;;;50.78;8.91
56713;BME280;42589;45.536;9.032;2023-05-13T16:19:12;99583.53;;;50.76;9.47